Time;durP1;ratioP1;P1;durP2;ratioP2;P2;SDS_P1;SDS_P2;PMS_P1;PMS_P2;Temp;Humidity;BMP_temperature;BMP_pressure;BME280_temperature;BME280_humidity;BME280_pressure;Samples;Min_cycle;Max_cycle;Signal;HPM_P1;HPM_P2
2023/12/12 00:02:25;;;;;;;10.93;6.57;;;6.80;96.90;;;;;;5064809;28;20070;-60
2023/12/12 00:04:51;;;;;;;10.98;6.40;;;6.80;96.80;;;;;;5072746;28;20044;-60
2023/12/12 00:07:20;;;;;;;10.27;6.75;;;6.80;96.80;;;;;;5055168;28;20500;-60
2023/12/12 00:09:49;;;;;;;11.00;6.47;;;6.70;96.80;;;;;;5072779;28;20033;-59
2023/12/12 00:12:15;;;;;;;13.18;7.47;;;6.70;96.90;;;;;;5072993;28;20081;-59
2023/12/12 00:14:41;;;;;;;11.52;6.78;;;6.70;96.80;;;;;;5072839;28;20033;-59
2023/12/12 00:17:08;;;;;;;12.43;7.18;;;6.70;96.80;;;;;;5080012;28;20077;-59
2023/12/12 00:19:41;;;;;;;11.70;7.72;;;6.70;96.90;;;;;;5093095;28;20032;-59
2023/12/12 00:22:10;;;;;;;10.93;6.45;;;6.70;96.90;;;;;;5070964;28;20441;-59
2023/12/12 00:24:38;;;;;;;16.10;7.47;;;6.70;96.80;;;;;;5101807;28;20032;-57
2023/12/12 00:27:05;;;;;;;11.95;6.85;;;6.70;96.80;;;;;;5113115;28;20451;-58
2023/12/12 00:29:35;;;;;;;10.48;7.15;;;6.70;96.90;;;;;;5091722;28;20016;-56
2023/12/12 00:32:04;;;;;;;9.98;7.20;;;6.70;96.80;;;;;;5055501;28;20054;-58
2023/12/12 00:34:31;;;;;;;10.63;6.73;;;6.70;96.80;;;;;;5073365;28;20051;-57
2023/12/12 00:36:58;;;;;;;11.05;6.03;;;6.70;96.80;;;;;;5075909;28;20028;-57
2023/12/12 00:39:26;;;;;;;12.38;6.72;;;6.70;96.80;;;;;;5076943;28;20063;-56
2023/12/12 00:41:53;;;;;;;13.60;8.85;;;6.70;96.80;;;;;;5076941;28;20165;-58
2023/12/12 00:44:22;;;;;;;12.57;7.63;;;6.70;96.80;;;;;;5077011;28;20090;-57
2023/12/12 00:46:48;;;;;;;10.43;6.55;;;6.70;96.80;;;;;;5076672;28;20024;-58
2023/12/12 00:49:14;;;;;;;13.55;7.15;;;6.70;96.80;;;;;;5077088;28;20036;-58
2023/12/12 00:51:41;;;;;;;14.20;8.27;;;6.70;96.70;;;;;;5076292;28;20028;-57
2023/12/12 00:54:08;;;;;;;9.40;5.57;;;6.70;96.80;;;;;;5076426;28;20341;-58
2023/12/12 00:56:35;;;;;;;14.48;6.72;;;6.70;96.80;;;;;;5076570;28;20025;-55
2023/12/12 00:59:03;;;;;;;10.23;7.57;;;6.70;96.80;;;;;;5058779;28;20032;-55
2023/12/12 01:01:28;;;;;;;11.60;6.80;;;6.60;96.70;;;;;;5076403;28;20099;-57
2023/12/12 01:03:56;;;;;;;12.85;7.50;;;6.60;96.70;;;;;;5076028;28;20533;-56
2023/12/12 01:06:28;;;;;;;9.48;5.90;;;6.60;96.70;;;;;;5058334;28;20066;-56
2023/12/12 01:08:57;;;;;;;14.98;8.40;;;6.60;96.70;;;;;;5076265;28;20021;-57
2023/12/12 01:11:25;;;;;;;10.82;5.82;;;6.60;96.70;;;;;;5076318;28;20028;-56
2023/12/12 01:13:52;;;;;;;11.88;6.63;;;6.60;96.70;;;;;;5058841;28;20035;-56
2023/12/12 01:16:19;;;;;;;9.48;6.15;;;6.60;96.70;;;;;;5076040;28;20032;-56
2023/12/12 01:18:46;;;;;;;11.00;6.28;;;6.60;96.70;;;;;;5076129;28;20430;-56
2023/12/12 01:21:15;;;;;;;9.65;6.18;;;6.60;96.70;;;;;;5076115;28;20079;-55
2023/12/12 01:23:49;;;;;;;9.85;6.93;;;6.60;96.70;;;;;;5084235;28;20032;-54
2023/12/12 01:26:20;;;;;;;9.50;6.07;;;6.60;96.70;;;;;;5076368;28;20032;-53
2023/12/12 01:28:46;;;;;;;10.35;6.45;;;6.60;96.70;;;;;;5042228;28;20043;-56
2023/12/12 01:31:25;;;;;;;11.95;6.80;;;6.50;96.60;;;;;;5058018;28;20510;-56
2023/12/12 01:33:53;;;;;;;12.53;6.90;;;6.60;96.70;;;;;;5058209;28;20040;-54
2023/12/12 01:36:21;;;;;;;12.77;6.95;;;6.50;96.70;;;;;;5057824;28;20033;-56
2023/12/12 01:38:48;;;;;;;9.45;6.40;;;6.60;96.70;;;;;;5075834;28;20028;-55
2023/12/12 01:41:16;;;;;;;9.85;6.25;;;6.60;96.70;;;;;;5076110;28;20028;-54
2023/12/12 01:43:42;;;;;;;9.10;5.93;;;6.50;96.70;;;;;;5057829;28;20472;-54
2023/12/12 01:46:13;;;;;;;11.52;6.63;;;6.60;96.70;;;;;;5075165;28;20108;-52
2023/12/12 01:48:40;;;;;;;10.00;7.22;;;6.60;96.70;;;;;;5074199;28;20024;-54
2023/12/12 01:51:07;;;;;;;10.80;7.05;;;6.60;96.60;;;;;;5075489;28;20029;-53
2023/12/12 01:53:41;;;;;;;9.20;5.97;;;6.50;96.70;;;;;;5075831;28;20025;-54
2023/12/12 01:56:18;;;;;;;11.35;6.60;;;6.60;96.70;;;;;;5058187;28;20480;-54
2023/12/12 01:58:49;;;;;;;10.68;7.05;;;6.60;96.70;;;;;;5075924;28;20416;-57
2023/12/12 02:01:16;;;;;;;9.73;5.70;;;6.50;96.60;;;;;;5041293;28;20415;-54
2023/12/12 02:03:55;;;;;;;9.95;7.03;;;6.50;96.70;;;;;;5057427;28;20144;-54
2023/12/12 02:06:22;;;;;;;14.07;8.20;;;6.50;96.70;;;;;;5075074;28;20503;-55
2023/12/12 02:08:54;;;;;;;10.48;6.93;;;6.50;96.70;;;;;;5057764;28;20040;-51
2023/12/12 02:11:21;;;;;;;11.75;6.63;;;6.50;96.60;;;;;;5041241;28;20079;-55
2023/12/12 02:13:49;;;;;;;9.93;6.35;;;6.50;96.60;;;;;;5075064;28;20029;-54
2023/12/12 02:16:15;;;;;;;13.35;5.85;;;6.40;96.60;;;;;;5057589;28;20619;-56
2023/12/12 02:18:40;;;;;;;9.18;6.03;;;6.40;96.60;;;;;;5057621;28;20111;-57
2023/12/12 02:21:07;;;;;;;12.23;7.05;;;6.40;96.60;;;;;;5057204;28;20032;-54
2023/12/12 02:23:33;;;;;;;9.48;6.20;;;6.40;96.50;;;;;;5086339;28;20035;-55
2023/12/12 02:26:01;;;;;;;13.23;7.22;;;6.40;96.60;;;;;;5097345;28;20035;-55
2023/12/12 02:28:30;;;;;;;12.05;7.53;;;6.40;96.60;;;;;;5097680;28;20032;-53
2023/12/12 02:30:59;;;;;;;12.02;7.85;;;6.40;96.60;;;;;;5094059;28;20036;-53
2023/12/12 02:33:26;;;;;;;11.82;6.93;;;6.30;96.60;;;;;;5074837;28;20029;-53
2023/12/12 02:35:52;;;;;;;10.23;6.97;;;6.30;96.60;;;;;;5074820;28;20028;-56
2023/12/12 02:38:21;;;;;;;10.07;6.43;;;6.30;96.60;;;;;;5074558;28;20030;-54
2023/12/12 02:40:50;;;;;;;11.10;7.07;;;6.30;96.60;;;;;;5074827;28;20090;-55
2023/12/12 02:43:15;;;;;;;13.20;6.82;;;6.30;96.60;;;;;;5074360;28;20057;-57
2023/12/12 02:45:44;;;;;;;12.48;7.55;;;6.30;96.60;;;;;;5074669;28;20121;-56
2023/12/12 02:48:13;;;;;;;11.23;7.53;;;6.30;96.50;;;;;;5074658;28;20032;-54
2023/12/12 02:50:40;;;;;;;9.98;6.05;;;6.30;96.60;;;;;;5074322;28;20090;-55
2023/12/12 02:53:07;;;;;;;10.25;6.53;;;6.30;96.60;;;;;;5074452;28;20112;-55
2023/12/12 02:55:33;;;;;;;12.10;7.03;;;6.40;96.60;;;;;;5056820;28;20020;-53
2023/12/12 02:58:04;;;;;;;11.82;7.05;;;6.30;96.50;;;;;;5073681;28;20020;-57
2023/12/12 03:00:30;;;;;;;11.85;7.38;;;6.30;96.50;;;;;;5074094;28;20100;-56
2023/12/12 03:02:57;;;;;;;9.20;6.30;;;6.30;96.60;;;;;;5074306;28;20020;-54
2023/12/12 03:05:25;;;;;;;11.93;7.70;;;6.30;96.60;;;;;;5073915;28;20052;-56
2023/12/12 03:07:55;;;;;;;11.82;7.10;;;6.30;96.60;;;;;;5073986;28;20016;-56
2023/12/12 03:10:22;;;;;;;12.63;7.75;;;6.30;96.60;;;;;;5073881;28;20024;-56
2023/12/12 03:12:49;;;;;;;11.27;6.50;;;6.30;96.60;;;;;;5073972;28;20036;-54
2023/12/12 03:15:19;;;;;;;13.07;6.90;;;6.30;96.60;;;;;;5073792;28;20442;-54
2023/12/12 03:17:46;;;;;;;13.57;7.00;;;6.30;96.60;;;;;;5074194;28;20508;-56
2023/12/12 03:20:16;;;;;;;11.35;6.45;;;6.30;96.60;;;;;;5073891;28;20066;-51
2023/12/12 03:22:44;;;;;;;11.60;6.45;;;6.30;96.60;;;;;;5073583;28;20017;-56
2023/12/12 03:25:13;;;;;;;13.65;7.22;;;6.40;96.60;;;;;;5074021;28;20039;-52
2023/12/12 03:27:45;;;;;;;11.18;6.50;;;6.40;96.60;;;;;;5073459;28;20405;-50
2023/12/12 03:30:13;;;;;;;8.98;5.55;;;6.30;96.60;;;;;;5073825;28;20028;-56
2023/12/12 03:32:39;;;;;;;11.15;5.93;;;6.40;96.60;;;;;;5073907;28;20513;-50
2023/12/12 03:35:07;;;;;;;11.32;7.00;;;6.40;96.60;;;;;;5073071;28;20060;-53
2023/12/12 03:37:35;;;;;;;12.65;7.00;;;6.30;96.60;;;;;;5073142;28;20124;-52
2023/12/12 03:40:04;;;;;;;12.25;7.80;;;6.40;96.60;;;;;;5073486;28;20048;-53
2023/12/12 03:42:32;;;;;;;15.68;9.40;;;6.40;96.60;;;;;;5073414;28;20057;-53
2023/12/12 03:45:00;;;;;;;17.45;9.88;;;6.40;96.60;;;;;;5073179;28;20086;-56
2023/12/12 03:47:27;;;;;;;19.67;10.45;;;6.40;96.60;;;;;;5073012;28;20032;-55
2023/12/12 03:49:54;;;;;;;20.92;11.65;;;6.30;96.50;;;;;;5073163;28;20048;-56
2023/12/12 03:52:24;;;;;;;20.05;11.52;;;6.30;96.60;;;;;;5073469;28;20033;-54
2023/12/12 03:54:56;;;;;;;18.90;10.63;;;6.30;96.60;;;;;;5073207;28;20481;-54
2023/12/12 03:57:23;;;;;;;19.55;10.88;;;6.30;96.60;;;;;;5073300;28;20584;-54
2023/12/12 03:59:50;;;;;;;18.05;10.23;;;6.30;96.60;;;;;;5073121;28;20043;-55
2023/12/12 04:02:18;;;;;;;17.13;9.38;;;6.30;96.60;;;;;;5055855;28;20474;-53
2023/12/12 04:04:43;;;;;;;19.42;10.57;;;6.40;96.60;;;;;;5072812;28;20060;-52
2023/12/12 04:07:10;;;;;;;21.25;9.40;;;6.30;96.60;;;;;;5073491;28;20046;-55
2023/12/12 04:09:37;;;;;;;20.35;9.05;;;6.30;96.50;;;;;;5072621;28;20016;-54
2023/12/12 04:12:13;;;;;;;19.60;9.63;;;6.30;96.60;;;;;;5072660;28;20016;-54
2023/12/12 04:14:42;;;;;;;19.17;9.25;;;6.30;96.60;;;;;;5072931;28;20028;-56
2023/12/12 04:17:10;;;;;;;17.33;7.85;;;6.40;96.60;;;;;;5072808;28;20151;-58
2023/12/12 04:19:44;;;;;;;15.88;8.02;;;6.30;96.60;;;;;;5073403;28;20032;-58
2023/12/12 04:22:12;;;;;;;15.70;7.30;;;6.30;96.60;;;;;;5073102;28;20032;-57
2023/12/12 04:24:39;;;;;;;16.27;7.30;;;6.40;96.60;;;;;;5102434;28;20034;-58
2023/12/12 04:27:05;;;;;;;14.35;7.47;;;6.40;96.60;;;;;;5091936;28;20059;-58
2023/12/12 04:29:33;;;;;;;14.98;7.53;;;6.40;96.60;;;;;;5051981;28;20453;-59
2023/12/12 04:32:01;;;;;;;16.48;7.90;;;6.40;96.60;;;;;;5069377;28;20024;-60
2023/12/12 04:34:33;;;;;;;19.48;8.13;;;6.40;96.60;;;;;;5072656;28;20025;-61
2023/12/12 04:37:04;;;;;;;17.33;8.30;;;6.40;96.60;;;;;;5055695;28;20052;-61
2023/12/12 04:39:33;;;;;;;19.20;9.48;;;6.40;96.60;;;;;;5072932;28;20025;-61
2023/12/12 04:41:58;;;;;;;22.52;10.40;;;6.40;96.60;;;;;;5073132;28;20033;-61
2023/12/12 04:44:25;;;;;;;23.95;11.20;;;6.40;96.60;;;;;;5072517;28;20040;-62
2023/12/12 04:46:51;;;;;;;26.90;12.90;;;6.40;96.60;;;;;;5051630;28;20636;-62
2023/12/12 04:49:20;;;;;;;29.65;14.00;;;6.40;96.60;;;;;;5071697;28;20112;-62
2023/12/12 04:51:48;;;;;;;30.35;13.57;;;6.40;96.60;;;;;;5072940;28;20044;-62
2023/12/12 04:54:16;;;;;;;26.17;13.30;;;6.40;96.60;;;;;;5072450;28;20036;-62
2023/12/12 04:56:43;;;;;;;27.35;13.00;;;6.40;96.60;;;;;;5072469;28;20025;-62
2023/12/12 04:59:12;;;;;;;27.80;13.23;;;6.40;96.70;;;;;;5072485;28;20089;-62
2023/12/12 05:01:38;;;;;;;28.58;14.05;;;6.40;96.60;;;;;;5072473;28;20481;-61
2023/12/12 05:04:07;;;;;;;34.13;15.57;;;6.40;96.70;;;;;;5054712;28;20091;-61
2023/12/12 05:06:36;;;;;;;27.13;13.27;;;6.40;96.60;;;;;;5073072;28;20032;-62
2023/12/12 05:09:03;;;;;;;25.97;14.07;;;6.40;96.70;;;;;;5072129;28;20032;-62
2023/12/12 05:11:32;;;;;;;26.15;12.98;;;6.40;96.60;;;;;;5072949;28;20290;-62
2023/12/12 05:14:01;;;;;;;22.35;11.10;;;6.40;96.70;;;;;;5072404;28;20020;-63
2023/12/12 05:16:29;;;;;;;21.05;9.80;;;6.40;96.60;;;;;;5072584;28;20031;-64
2023/12/12 05:18:56;;;;;;;19.55;10.38;;;6.40;96.60;;;;;;5072241;28;20090;-64
2023/12/12 05:21:24;;;;;;;18.50;11.48;;;6.40;96.60;;;;;;5055278;28;20059;-64
2023/12/12 05:23:51;;;;;;;19.08;12.27;;;6.30;96.60;;;;;;5085584;28;20024;-64
2023/12/12 05:26:22;;;;;;;19.48;11.10;;;6.40;96.60;;;;;;5096006;28;20457;-64
2023/12/12 05:28:50;;;;;;;18.67;11.63;;;6.40;96.60;;;;;;5096059;28;20024;-64
2023/12/12 05:31:19;;;;;;;19.35;11.23;;;6.30;96.60;;;;;;5096140;28;20099;-64
2023/12/12 05:33:50;;;;;;;17.50;10.38;;;6.30;96.60;;;;;;5080979;28;20109;-64
2023/12/12 05:36:16;;;;;;;15.75;8.68;;;6.30;96.70;;;;;;5075473;28;20024;-63
2023/12/12 05:38:43;;;;;;;12.65;6.95;;;6.40;96.60;;;;;;5075579;28;20362;-63
2023/12/12 05:41:14;;;;;;;13.10;6.95;;;6.30;96.50;;;;;;5076129;28;20028;-62
2023/12/12 05:43:42;;;;;;;11.75;6.68;;;6.30;96.60;;;;;;5075694;28;20328;-62
2023/12/12 05:46:10;;;;;;;12.00;8.95;;;6.30;96.60;;;;;;5076010;28;20034;-62
2023/12/12 05:48:36;;;;;;;9.88;7.13;;;6.30;96.60;;;;;;5057742;28;20055;-62
2023/12/12 05:51:04;;;;;;;8.85;6.90;;;6.30;96.60;;;;;;5075549;28;20454;-62
2023/12/12 05:53:33;;;;;;;9.20;5.45;;;6.30;96.60;;;;;;5075371;28;20439;-61
2023/12/12 05:56:00;;;;;;;;;;;6.30;96.60;;;;;;5075862;28;20028;-61
2023/12/12 05:58:28;;;;;;;9.68;6.70;;;6.30;96.60;;;;;;5075476;28;20368;-61
2023/12/12 06:01:00;;;;;;;12.82;7.85;;;6.30;96.60;;;;;;5075343;28;20459;-61
2023/12/12 06:03:25;;;;;;;14.18;9.73;;;6.30;96.60;;;;;;5075718;28;20036;-61
2023/12/12 06:05:52;;;;;;;13.10;8.77;;;6.30;96.60;;;;;;5057541;28;20036;-61
2023/12/12 06:08:19;;;;;;;15.82;10.85;;;6.30;96.60;;;;;;5074497;28;20039;-60
2023/12/12 06:10:47;;;;;;;13.35;9.40;;;6.30;96.60;;;;;;5074969;28;20040;-60
2023/12/12 06:13:13;;;;;;;16.17;10.07;;;6.30;96.60;;;;;;5074526;28;20032;-60
2023/12/12 06:15:41;;;;;;;14.57;9.40;;;6.20;96.60;;;;;;5075173;28;20024;-60
2023/12/12 06:18:10;;;;;;;14.32;9.18;;;6.30;96.60;;;;;;5074790;28;20025;-60
2023/12/12 06:20:37;;;;;;;12.30;9.52;;;6.30;96.60;;;;;;5074887;28;20400;-60
2023/12/12 06:23:03;;;;;;;14.30;9.85;;;6.20;96.50;;;;;;5075291;28;20448;-59
2023/12/12 06:25:40;;;;;;;14.73;9.70;;;6.20;96.60;;;;;;5090909;28;20036;-59
2023/12/12 06:28:07;;;;;;;14.68;9.98;;;6.20;96.60;;;;;;5074316;28;20365;-59
2023/12/12 06:30:38;;;;;;;11.20;7.82;;;6.20;96.60;;;;;;5074392;28;20032;-59
2023/12/12 06:33:05;;;;;;;11.88;7.88;;;6.30;96.60;;;;;;5073354;28;20020;-59
2023/12/12 06:35:36;;;;;;;10.00;6.72;;;6.20;96.60;;;;;;5073979;28;20125;-59
2023/12/12 06:38:03;;;;;;;10.18;7.63;;;6.20;96.60;;;;;;5074636;28;20576;-59
2023/12/12 06:40:31;;;;;;;11.93;7.35;;;6.30;96.60;;;;;;5074117;28;20349;-60
2023/12/12 06:42:58;;;;;;;10.07;6.10;;;6.20;96.60;;;;;;5074631;28;20031;-62
2023/12/12 06:45:23;;;;;;;9.63;5.47;;;6.30;96.60;;;;;;5073694;28;20047;-64
2023/12/12 06:47:50;;;;;;;7.53;5.13;;;6.20;96.60;;;;;;5074357;28;20016;-64
2023/12/12 06:50:18;;;;;;;6.85;5.53;;;6.20;96.70;;;;;;5074434;28;20029;-64
2023/12/12 06:52:45;;;;;;;7.20;5.63;;;6.30;96.60;;;;;;5074326;28;20078;-64
2023/12/12 06:55:15;;;;;;;7.53;5.53;;;6.30;96.70;;;;;;5073475;28;20453;-64
2023/12/12 06:57:43;;;;;;;7.80;5.00;;;6.30;96.70;;;;;;5074232;28;20109;-64
2023/12/12 07:00:11;;;;;;;7.53;5.18;;;6.30;96.70;;;;;;5074120;28;20060;-64
2023/12/12 07:02:38;;;;;;;7.72;5.60;;;6.30;96.70;;;;;;5059584;28;20509;-64
2023/12/12 07:05:05;;;;;;;7.03;4.70;;;6.30;96.70;;;;;;5053290;28;20152;-64
2023/12/12 07:07:36;;;;;;;7.88;5.32;;;6.30;96.70;;;;;;5074486;28;20059;-64
2023/12/12 07:10:06;;;;;;;7.35;5.10;;;6.30;96.70;;;;;;5073966;28;20102;-64
2023/12/12 07:12:37;;;;;;;8.52;5.78;;;6.30;96.70;;;;;;5074781;28;20039;-64
2023/12/12 07:15:09;;;;;;;10.02;6.25;;;6.30;96.70;;;;;;5056143;28;20020;-64
2023/12/12 07:17:36;;;;;;;10.60;7.25;;;6.30;96.70;;;;;;5073879;28;20362;-64
2023/12/12 07:20:02;;;;;;;10.02;6.68;;;6.40;96.70;;;;;;5073697;28;20094;-63
2023/12/12 07:22:28;;;;;;;10.50;7.15;;;6.40;96.70;;;;;;5073745;28;20024;-63
2023/12/12 07:24:59;;;;;;;11.32;8.48;;;6.40;96.70;;;;;;5081336;28;20055;-63
2023/12/12 07:27:41;;;;;;;13.27;7.50;;;6.40;96.70;;;;;;5073660;28;20048;-63
2023/12/12 07:30:10;;;;;;;10.70;8.20;;;6.40;96.80;;;;;;5074361;28;20027;-62
2023/12/12 07:32:37;;;;;;;10.57;8.02;;;6.40;96.70;;;;;;5073367;28;20045;-62
2023/12/12 07:35:05;;;;;;;11.95;7.10;;;6.40;96.60;;;;;;5073475;28;20402;-62
2023/12/12 07:37:32;;;;;;;11.35;7.03;;;6.40;96.70;;;;;;5073782;28;20205;-62
2023/12/12 07:39:59;;;;;;;9.73;6.72;;;6.30;96.70;;;;;;5055817;28;20056;-62
2023/12/12 07:42:24;;;;;;;9.05;6.13;;;6.30;96.60;;;;;;5073307;28;20107;-62
2023/12/12 07:44:51;;;;;;;10.98;6.55;;;6.30;96.60;;;;;;5073780;28;20123;-61
2023/12/12 07:47:19;;;;;;;9.63;6.25;;;6.20;96.50;;;;;;5073280;28;20063;-61
2023/12/12 07:49:45;;;;;;;9.38;6.70;;;6.20;96.60;;;;;;5073446;28;20039;-61
2023/12/12 07:52:11;;;;;;;11.63;6.28;;;6.20;96.60;;;;;;5072914;28;20108;-61
2023/12/12 07:54:39;;;;;;;10.30;6.53;;;6.20;96.60;;;;;;5072906;28;20104;-61
2023/12/12 07:57:05;;;;;;;11.35;6.57;;;6.20;96.60;;;;;;5072894;28;20033;-61
2023/12/12 07:59:32;;;;;;;7.55;6.07;;;6.10;96.60;;;;;;5073262;28;20032;-61
2023/12/12 08:02:00;;;;;;;9.02;6.20;;;6.10;96.60;;;;;;5073178;28;20434;-60
2023/12/12 08:04:28;;;;;;;10.95;6.35;;;6.10;96.50;;;;;;5054948;28;20412;-60
2023/12/12 08:06:54;;;;;;;12.70;6.60;;;6.10;96.50;;;;;;5055313;28;20116;-60
2023/12/12 08:09:21;;;;;;;16.98;6.30;;;6.10;96.50;;;;;;5073187;28;20047;-59
2023/12/12 08:11:50;;;;;;;10.57;6.47;;;6.10;96.50;;;;;;5073542;28;20021;-59
2023/12/12 08:14:17;;;;;;;11.10;5.68;;;6.10;96.40;;;;;;5072894;28;20036;-59
2023/12/12 08:16:46;;;;;;;9.30;6.03;;;6.00;96.40;;;;;;5073336;28;20036;-59
2023/12/12 08:19:14;;;;;;;8.70;5.47;;;6.00;96.40;;;;;;5055436;28;20098;-59
2023/12/12 08:21:40;;;;;;;12.30;6.53;;;6.00;96.40;;;;;;5072619;28;20026;-59
2023/12/12 08:24:09;;;;;;;9.50;5.82;;;6.10;96.50;;;;;;5066088;28;20407;-59
2023/12/12 08:26:46;;;;;;;10.07;6.90;;;6.10;96.50;;;;;;5093052;28;20035;-58
2023/12/12 08:29:15;;;;;;;17.20;6.55;;;6.10;96.40;;;;;;5075647;28;20032;-57
2023/12/12 08:31:42;;;;;;;11.20;5.70;;;6.00;96.30;;;;;;5080378;28;20369;-58
2023/12/12 08:34:11;;;;;;;10.82;5.57;;;6.00;96.40;;;;;;5073074;28;20384;-58
2023/12/12 08:36:38;;;;;;;10.27;5.82;;;6.10;96.40;;;;;;5072690;28;20020;-56
2023/12/12 08:39:07;;;;;;;8.05;5.95;;;6.00;96.30;;;;;;5072553;28;20559;-57
2023/12/12 08:41:33;;;;;;;9.73;5.57;;;6.00;96.30;;;;;;5072557;28;20513;-57
2023/12/12 08:43:59;;;;;;;11.50;6.18;;;6.00;96.30;;;;;;5073174;28;20029;-57
2023/12/12 08:46:30;;;;;;;11.07;5.47;;;6.00;96.30;;;;;;5038310;28;20094;-55
2023/12/12 08:48:57;;;;;;;11.82;8.68;;;6.00;96.30;;;;;;5055521;28;20033;-53
2023/12/12 08:51:30;;;;;;;8.88;5.80;;;6.00;96.30;;;;;;5038399;28;20382;-56
2023/12/12 08:53:58;;;;;;;11.98;5.90;;;6.00;96.30;;;;;;5072774;28;20024;-58
2023/12/12 08:56:25;;;;;;;15.80;6.80;;;6.00;96.20;;;;;;5073577;28;20392;-56
2023/12/12 08:58:54;;;;;;;11.38;7.05;;;6.00;96.30;;;;;;5069550;28;20029;-60
2023/12/12 09:01:24;;;;;;;17.20;6.88;;;6.10;96.30;;;;;;5075996;28;20026;-62
2023/12/12 09:03:49;;;;;;;15.30;6.30;;;6.10;96.30;;;;;;5076124;28;20083;-63
2023/12/12 09:06:15;;;;;;;12.38;6.30;;;6.10;96.30;;;;;;5076260;28;20067;-63
2023/12/12 09:08:42;;;;;;;12.20;6.70;;;6.10;96.30;;;;;;5076643;28;20032;-63
2023/12/12 09:11:11;;;;;;;11.70;6.22;;;6.10;96.30;;;;;;5076038;28;20021;-64
2023/12/12 09:13:43;;;;;;;11.15;6.03;;;6.10;96.30;;;;;;5059096;28;20457;-64
2023/12/12 09:16:09;;;;;;;10.98;5.40;;;6.00;96.10;;;;;;5042529;28;20040;-63
2023/12/12 09:18:39;;;;;;;16.63;5.43;;;6.10;96.30;;;;;;5058591;28;20044;-64
2023/12/12 09:21:07;;;;;;;13.02;6.10;;;6.00;96.10;;;;;;5058993;28;20036;-64
2023/12/12 09:23:34;;;;;;;13.48;6.80;;;6.00;96.20;;;;;;5082804;28;20024;-63
2023/12/12 09:26:04;;;;;;;10.82;5.95;;;6.00;96.10;;;;;;5073189;28;20063;-62
2023/12/12 09:28:31;;;;;;;10.73;5.82;;;6.10;96.20;;;;;;5041546;28;20162;-61
2023/12/12 09:31:01;;;;;;;9.52;6.13;;;6.20;96.20;;;;;;5076092;28;20089;-61
2023/12/12 09:33:36;;;;;;;13.70;6.40;;;6.20;96.20;;;;;;5076391;28;20033;-61
2023/12/12 09:36:12;;;;;;;14.85;7.70;;;6.20;96.10;;;;;;5058643;28;20028;-60
2023/12/12 09:38:40;;;;;;;10.98;6.72;;;6.20;96.10;;;;;;5076054;28;20378;-60
2023/12/12 09:41:20;;;;;;;11.43;5.85;;;6.20;96.00;;;;;;5075815;28;20112;-60
2023/12/12 09:43:48;;;;;;;7.72;5.38;;;6.20;96.10;;;;;;5057887;28;20024;-61
2023/12/12 09:46:16;;;;;;;12.57;8.50;;;6.30;96.20;;;;;;5075855;28;20095;-59
2023/12/12 09:48:45;;;;;;;9.07;5.80;;;6.40;96.10;;;;;;5075415;28;20020;-59
2023/12/12 09:51:14;;;;;;;9.90;5.78;;;6.40;96.10;;;;;;5075600;28;20104;-58
2023/12/12 09:53:48;;;;;;;12.38;5.90;;;6.40;95.90;;;;;;5075853;28;20108;-59
2023/12/12 09:56:20;;;;;;;11.13;5.57;;;6.50;96.00;;;;;;5075102;28;20029;-58
2023/12/12 09:58:49;;;;;;;11.02;6.03;;;6.60;95.90;;;;;;5075320;28;20097;-56
2023/12/12 10:01:17;;;;;;;11.70;6.07;;;6.70;95.90;;;;;;5075786;28;20461;-56
2023/12/12 10:03:47;;;;;;;10.50;5.95;;;6.70;95.70;;;;;;5075408;28;20436;-53
2023/12/12 10:06:18;;;;;;;8.60;5.60;;;6.70;95.80;;;;;;5055538;28;20061;-56
2023/12/12 10:08:47;;;;;;;9.82;6.57;;;6.70;95.60;;;;;;5036290;28;20047;-55
2023/12/12 10:11:16;;;;;;;10.57;6.35;;;6.70;95.60;;;;;;5055414;28;20021;-52
2023/12/12 10:14:00;;;;;;;8.05;5.70;;;6.80;95.50;;;;;;5055382;28;20048;-53
2023/12/12 10:16:30;;;;;;;11.02;6.05;;;6.90;95.50;;;;;;5039178;28;20050;-52
2023/12/12 10:19:01;;;;;;;7.47;5.50;;;6.90;95.40;;;;;;5055228;28;20115;-51
2023/12/12 10:21:28;;;;;;;10.68;5.95;;;6.90;95.30;;;;;;5037699;28;20029;-50
2023/12/12 10:24:01;;;;;;;9.00;5.57;;;6.90;95.30;;;;;;5072508;28;20024;-49
2023/12/12 10:26:45;;;;;;;8.60;5.30;;;7.00;95.20;;;;;;5090491;28;20039;-50
2023/12/12 10:29:12;;;;;;;13.15;5.97;;;7.00;95.10;;;;;;5039011;28;20037;-48
2023/12/12 10:31:39;;;;;;;13.30;5.72;;;7.10;95.10;;;;;;5037109;28;20021;-50
2023/12/12 10:34:06;;;;;;;8.23;5.53;;;7.10;95.10;;;;;;5055038;28;20021;-48
2023/12/12 10:36:38;;;;;;;9.80;5.80;;;7.20;95.10;;;;;;5037417;28;20519;-50
2023/12/12 10:39:12;;;;;;;13.00;6.00;;;7.20;94.80;;;;;;5037364;28;20032;-48
2023/12/12 10:41:55;;;;;;;8.52;5.32;;;7.20;94.70;;;;;;5038199;28;20037;-52
2023/12/12 10:44:32;;;;;;;9.07;4.72;;;7.20;94.60;;;;;;5039310;28;20090;-50
2023/12/12 10:47:03;;;;;;;9.50;5.45;;;7.30;94.60;;;;;;5020820;28;20063;-49
2023/12/12 10:49:31;;;;;;;8.95;5.65;;;7.40;94.60;;;;;;5045386;28;20693;-47
2023/12/12 10:52:01;;;;;;;7.90;6.03;;;7.40;94.50;;;;;;5056474;28;20111;-47
2023/12/12 10:54:33;;;;;;;8.27;5.43;;;7.40;94.40;;;;;;5042126;28;20086;-49
2023/12/12 10:57:05;;;;;;;11.43;7.40;;;7.40;94.20;;;;;;5037388;28;20409;-51
2023/12/12 10:59:34;;;;;;;10.95;6.22;;;7.40;93.90;;;;;;5054676;28;20035;-48
2023/12/12 11:02:01;;;;;;;11.27;7.30;;;7.30;93.90;;;;;;5020439;28;20442;-48
2023/12/12 11:04:27;;;;;;;10.73;7.57;;;7.40;93.90;;;;;;5041768;28;20135;-49
2023/12/12 11:06:56;;;;;;;10.90;7.30;;;7.30;93.90;;;;;;5074566;28;20090;-48
2023/12/12 11:09:24;;;;;;;11.73;7.20;;;7.30;94.10;;;;;;5056407;28;20530;-46
2023/12/12 11:11:53;;;;;;;119.03;53.97;;;7.30;93.90;;;;;;5074323;28;20043;-46
2023/12/12 11:14:24;;;;;;;39.95;21.17;;;7.30;93.80;;;;;;5056434;28;20033;-46
2023/12/12 11:17:07;;;;;;;17.65;12.23;;;7.20;93.60;;;;;;5056773;28;20036;-46
2023/12/12 11:19:36;;;;;;;15.13;9.82;;;7.20;93.80;;;;;;5055547;28;20033;-52
2023/12/12 11:22:03;;;;;;;14.38;9.68;;;7.20;93.90;;;;;;5067354;28;20500;-47
2023/12/12 11:25:12;;;;;;;13.18;10.48;;;7.30;94.10;;;;;;5056391;28;20473;-46
2023/12/12 11:27:47;;;;;;;18.98;10.65;;;7.20;93.90;;;;;;5073508;28;20039;-50
2023/12/12 11:30:30;;;;;;;11.65;9.32;;;7.20;93.80;;;;;;5045797;28;20040;-45
2023/12/12 11:33:01;;;;;;;14.88;9.35;;;7.20;93.70;;;;;;5056041;28;20492;-46
2023/12/12 11:35:31;;;;;;;14.38;9.70;;;7.10;93.50;;;;;;5073782;28;20033;-48
2023/12/12 11:38:04;;;;;;;11.27;7.63;;;7.00;93.60;;;;;;5056327;28;20032;-47
2023/12/12 11:40:32;;;;;;;13.43;7.35;;;7.00;93.70;;;;;;5040177;28;20511;-49
2023/12/12 11:43:23;;;;;;;12.32;6.72;;;7.00;93.80;;;;;;5073479;28;20024;-47
2023/12/12 11:45:50;;;;;;;10.98;7.82;;;7.00;93.90;;;;;;5061701;28;20040;-46
2023/12/12 11:48:28;;;;;;;14.32;8.75;;;7.10;93.90;;;;;;5073248;28;20024;-45
2023/12/12 11:50:56;;;;;;;10.00;7.82;;;7.00;93.60;;;;;;5040484;28;20094;-47
2023/12/12 11:53:42;;;;;;;14.05;7.97;;;7.00;93.60;;;;;;5056077;28;20478;-46
2023/12/12 11:56:09;;;;;;;10.93;7.60;;;7.00;93.70;;;;;;5072965;28;20043;-46
2023/12/12 11:58:37;;;;;;;13.38;7.13;;;7.10;93.80;;;;;;5073255;28;20116;-49
2023/12/12 12:01:07;;;;;;;14.18;7.45;;;7.00;93.60;;;;;;5056581;28;20039;-48
2023/12/12 12:03:35;;;;;;;13.27;8.30;;;7.00;93.60;;;;;;5073191;28;20195;-51
2023/12/12 12:06:05;;;;;;;12.88;8.85;;;7.00;93.80;;;;;;5072684;28;20048;-46
2023/12/12 12:08:32;;;;;;;16.50;9.18;;;7.10;93.90;;;;;;5053213;28;20115;-49
2023/12/12 12:10:58;;;;;;;13.63;9.43;;;7.20;93.80;;;;;;5055408;28;20027;-46
2023/12/12 12:13:40;;;;;;;14.63;8.48;;;7.20;93.70;;;;;;5055737;28;20029;-45
2023/12/12 12:16:19;;;;;;;12.43;7.40;;;7.10;93.50;;;;;;5055225;28;20039;-45
2023/12/12 12:18:47;;;;;;;11.60;8.13;;;7.10;93.60;;;;;;5072913;28;20029;-49
2023/12/12 12:21:15;;;;;;;13.63;7.28;;;7.20;93.60;;;;;;5073340;28;20913;-46
2023/12/12 12:23:45;;;;;;;13.25;8.48;;;7.20;93.60;;;;;;5080989;28;20024;-47
2023/12/12 12:26:13;;;;;;;11.25;7.80;;;7.20;93.40;;;;;;5092763;28;20024;-46
2023/12/12 12:28:42;;;;;;;13.07;9.25;;;7.30;93.50;;;;;;5077793;28;20111;-46
2023/12/12 12:31:09;;;;;;;15.25;8.77;;;7.30;93.60;;;;;;5072468;28;20032;-49
2023/12/12 12:33:38;;;;;;;15.10;8.68;;;7.30;93.50;;;;;;5073163;28;20608;-45
2023/12/12 12:36:08;;;;;;;11.45;7.80;;;7.40;93.40;;;;;;5072752;28;20025;-45
2023/12/12 12:38:35;;;;;;;11.10;8.23;;;7.40;93.50;;;;;;5056184;28;20132;-45
2023/12/12 12:41:20;;;;;;;13.95;8.13;;;7.40;93.40;;;;;;5055041;28;20339;-47
2023/12/12 12:43:57;;;;;;;12.55;8.95;;;7.30;93.40;;;;;;5055048;28;20098;-47
2023/12/12 12:46:26;;;;;;;12.73;8.63;;;7.30;93.40;;;;;;5072869;28;20051;-46
2023/12/12 12:48:54;;;;;;;20.30;9.70;;;7.30;93.30;;;;;;5073094;28;20036;-45
2023/12/12 12:51:25;;;;;;;13.32;8.95;;;7.30;93.40;;;;;;5072623;28;20024;-46
2023/12/12 12:53:51;;;;;;;13.13;9.20;;;7.20;93.20;;;;;;5054939;28;20025;-47
2023/12/12 12:56:20;;;;;;;15.73;9.00;;;7.10;93.30;;;;;;5072829;28;20388;-49
2023/12/12 12:58:46;;;;;;;15.30;9.38;;;7.10;93.20;;;;;;5072654;28;20082;-46